Oconomowoc, WI (53066)

1:41 AM CST on February 01, 2015 (GMT -0600)
Genesee Lake Farms | Change Station
CLOSE
Current Station
Personal Weather Station
Location: Oconomowoc, WI
Elevation: 884 ft
Nearby Weather Stations
Active Advisory: Winter Weather Advisory

Elev 884 ft 43.04 °N, 88.49 °W | Updated 19 seconds ago

Snow
Snow
25.3 °F
Feels Like 25 °F
N
0.0
Wind Variable Wind from ENE
Gusts 3.0 mph

Today
High -- | Low -- °F
--% Chance of Precip.
Yesterday
High -- | Low -- °F
Precip. -- in
7:09 AM 5:06 PM
Waxing Gibbous, 94% visible
Pressure 30.14 in
Visibility 1.5 miles
Clouds Overcast 600 ft
Windchill 25 °F
Dew Point 24 °F
Humidity 94%
Rainfall 0.00 in
Snow Depth Not available.
UV 0 out of 12
Pollen .10 out of 12
Air Quality Not available.
Flu Activity Not available.
METAR KUES 010715Z AUTO 04013G16KT 1 1/2SM -SN OVC006 M03/M04 A3014 RMK AO2

More Conditions Fewer Conditions

Pressure 30.14 in
Visibility 1.5 miles
Clouds Overcast 600 ft
Windchill 25 °F
Dew Point 24 °F
Humidity 94%
Rainfall 0.00 in
Snow Depth Not available.
UV 0 out of 12
Pollen .10 out of 12
Air Quality Not available.
Flu Activity Not available.
METAR KUES 010715Z AUTO 04013G16KT 1 1/2SM -SN OVC006 M03/M04 A3014 RMK AO2

More Conditions Fewer Conditions

10-Day Weather Forecast

Almanac

Astronomy

Feb. 01, 2015 Rise Set
Actual Time
Civil Twilight
Nautical Twilight
Astronomical Twilight
Moon
Length of Visible Light
Length of Day
Tomorrow will be .
, % of the Moon is Illuminated

Today's Extremes

State Highs State Lows

Community

WunderPhotos

Upload Photos

1,792,327 photos uploaded!

WunderBlogs® & News

Nearby

Air Quality

  Air Quality AQ Index Pollutant
Not available.

Snow Depth

Station Depth Elevation

Earthquake Activity

City Distance Mag. Time & Date
Minimum magnitude displayed is 2.5.

Coastal Water Temperatures

Place Temperature

Nearby Weather Stations